Time;durP1;ratioP1;P1;durP2;ratioP2;P2;SDS_P1;SDS_P2;PMS_P1;PMS_P2;Temp;Humidity;BMP_temperature;BMP_pressure;BME280_temperature;BME280_humidity;BME280_pressure;Samples;Min_cycle;Max_cycle;Signal;HPM_P1;HPM_P2
2024/03/21 00:00:40;;;;;;;25.65;14.50;;;;;;;;;;2092069;28;20029;-65
2024/03/21 00:01:59;;;;;;;26.63;15.48;;;;;;;;;;2093207;28;20360;-66
2024/03/21 00:03:18;;;;;;;26.95;13.93;;;;;;;;;;2093760;28;20437;-65
2024/03/21 00:04:37;;;;;;;25.67;14.55;;;;;;;;;;2093879;28;20037;-65
2024/03/21 00:05:56;;;;;;;24.30;14.13;;;;;;;;;;2092487;28;20024;-65
2024/03/21 00:07:15;;;;;;;24.25;14.85;;;;;;;;;;2093109;28;20033;-65
2024/03/21 00:08:33;;;;;;;26.65;15.23;;;;;;;;;;2084308;28;20036;-65
2024/03/21 00:09:52;;;;;;;24.13;13.88;;;;;;;;;;2089480;28;20037;-66
2024/03/21 00:11:11;;;;;;;23.63;14.57;;;;;;;;;;2094375;28;20025;-65
2024/03/21 00:12:30;;;;;;;23.60;14.30;;;;;;;;;;2083405;28;20462;-65
2024/03/21 00:13:49;;;;;;;26.33;14.70;;;;;;;;;;2089440;28;20037;-66
2024/03/21 00:15:08;;;;;;;25.35;14.68;;;;;;;;;;2084590;28;20037;-66
2024/03/21 00:16:27;;;;;;;26.98;14.95;;;;;;;;;;2090414;28;20487;-70
2024/03/21 00:17:46;;;;;;;21.30;13.93;;;;;;;;;;2093003;28;20064;-65
2024/03/21 00:19:05;;;;;;;22.90;13.75;;;;;;;;;;2092642;28;20025;-65
2024/03/21 00:20:24;;;;;;;24.58;14.30;;;;;;;;;;2092380;28;20037;-65
2024/03/21 00:21:43;;;;;;;27.92;14.55;;;;;;;;;;2093127;28;20115;-65
2024/03/21 00:23:03;;;;;;;23.10;14.55;;;;;;;;;;2092043;28;20021;-65
2024/03/21 00:24:22;;;;;;;24.60;14.15;;;;;;;;;;2092767;28;20029;-65
2024/03/21 00:25:41;;;;;;;23.90;14.00;;;;;;;;;;2092937;28;20398;-65
2024/03/21 00:27:00;;;;;;;24.02;14.25;;;;;;;;;;2092921;28;20389;-65
2024/03/21 00:28:19;;;;;;;22.95;14.05;;;;;;;;;;2092942;28;20119;-65
2024/03/21 00:29:38;;;;;;;25.90;14.80;;;;;;;;;;2082751;28;20037;-65
2024/03/21 00:30:58;;;;;;;25.88;14.95;;;;;;;;;;2089620;28;20045;-65
2024/03/21 00:32:16;;;;;;;21.95;13.85;;;;;;;;;;2085023;28;20033;-65
2024/03/21 00:33:35;;;;;;;22.98;14.30;;;;;;;;;;2088033;28;20028;-66
2024/03/21 00:34:54;;;;;;;25.35;14.45;;;;;;;;;;2083346;28;20033;-65
2024/03/21 00:36:14;;;;;;;26.98;14.88;;;;;;;;;;2089835;28;20025;-65
2024/03/21 00:37:33;;;;;;;26.15;14.50;;;;;;;;;;2093039;28;20025;-66
2024/03/21 00:38:52;;;;;;;24.50;14.73;;;;;;;;;;2085383;28;20135;-65
2024/03/21 00:40:11;;;;;;;22.92;14.50;;;;;;;;;;2080531;28;20120;-65
2024/03/21 00:41:30;;;;;;;26.13;15.15;;;;;;;;;;2079755;28;20033;-65
2024/03/21 00:42:50;;;;;;;25.35;15.02;;;;;;;;;;2089065;28;20282;-66
2024/03/21 00:44:08;;;;;;;26.17;14.13;;;;;;;;;;2093339;28;20021;-65
2024/03/21 00:45:27;;;;;;;25.77;15.02;;;;;;;;;;2092985;28;20025;-65
2024/03/21 00:46:47;;;;;;;24.27;14.25;;;;;;;;;;2083371;28;20113;-65
2024/03/21 00:48:06;;;;;;;23.40;14.00;;;;;;;;;;2087943;28;20025;-65
2024/03/21 00:49:25;;;;;;;26.70;14.10;;;;;;;;;;2095165;28;20068;-65
2024/03/21 00:50:44;;;;;;;23.23;14.88;;;;;;;;;;2101442;28;20074;-65
2024/03/21 00:52:03;;;;;;;22.90;14.05;;;;;;;;;;2100759;28;20028;-66
2024/03/21 00:53:21;;;;;;;24.25;14.65;;;;;;;;;;2101495;28;20414;-65
2024/03/21 00:54:41;;;;;;;21.77;13.98;;;;;;;;;;2101102;28;20032;-66
2024/03/21 00:56:00;;;;;;;22.00;13.90;;;;;;;;;;2100577;28;20059;-65
2024/03/21 00:57:21;;;;;;;21.80;13.43;;;;;;;;;;2100272;28;20056;-65
2024/03/21 00:58:40;;;;;;;23.77;14.35;;;;;;;;;;2092150;28;20029;-65
2024/03/21 00:59:59;;;;;;;25.23;14.30;;;;;;;;;;2097777;28;20028;-65
2024/03/21 01:01:18;;;;;;;23.95;14.32;;;;;;;;;;2101040;28;20047;-65
2024/03/21 01:02:37;;;;;;;25.33;15.70;;;;;;;;;;2101120;28;20103;-65
2024/03/21 01:03:56;;;;;;;24.95;14.57;;;;;;;;;;2091378;28;20032;-65
2024/03/21 01:05:18;;;;;;;24.13;13.82;;;;;;;;;;2097058;28;20036;-66
2024/03/21 01:06:37;;;;;;;24.45;14.85;;;;;;;;;;2101077;28;20112;-65
2024/03/21 01:07:56;;;;;;;25.08;14.85;;;;;;;;;;2101193;28;20024;-65
2024/03/21 01:09:15;;;;;;;22.90;14.18;;;;;;;;;;2101193;28;20029;-66
2024/03/21 01:10:34;;;;;;;22.05;14.15;;;;;;;;;;2094036;28;20513;-65
2024/03/21 01:11:54;;;;;;;24.42;14.65;;;;;;;;;;2097947;28;20036;-65
2024/03/21 01:13:13;;;;;;;23.20;13.27;;;;;;;;;;2097883;28;20111;-66
2024/03/21 01:14:32;;;;;;;24.77;13.52;;;;;;;;;;2100581;28;20024;-65
2024/03/21 01:15:51;;;;;;;22.20;14.02;;;;;;;;;;2100988;28;20036;-65
2024/03/21 01:17:10;;;;;;;22.83;13.57;;;;;;;;;;2101940;28;20473;-66
2024/03/21 01:18:35;;;;;;;24.65;14.63;;;;;;;;;;2101408;28;20032;-65
2024/03/21 01:19:53;;;;;;;22.73;13.75;;;;;;;;;;2101304;28;20055;-65
2024/03/21 01:21:14;;;;;;;23.35;14.20;;;;;;;;;;2101564;28;20032;-65
2024/03/21 01:22:33;;;;;;;25.10;14.27;;;;;;;;;;2101215;28;20487;-65
2024/03/21 01:23:53;;;;;;;22.13;14.30;;;;;;;;;;2101203;28;20017;-65
2024/03/21 01:25:12;;;;;;;22.63;13.45;;;;;;;;;;2101621;28;20028;-65
2024/03/21 01:26:31;;;;;;;21.10;13.70;;;;;;;;;;2100972;28;20027;-65
2024/03/21 01:27:49;;;;;;;25.83;14.70;;;;;;;;;;2101335;28;20432;-65
2024/03/21 01:29:08;;;;;;;24.17;14.70;;;;;;;;;;2101918;28;20056;-65
2024/03/21 01:30:34;;;;;;;25.60;14.48;;;;;;;;;;2100008;28;20040;-65
2024/03/21 01:31:53;;;;;;;24.30;14.40;;;;;;;;;;2101409;28;20025;-65
2024/03/21 01:33:12;;;;;;;22.42;13.85;;;;;;;;;;2101062;28;20490;-65
2024/03/21 01:34:31;;;;;;;24.58;14.43;;;;;;;;;;2101760;28;20028;-65
2024/03/21 01:35:50;;;;;;;24.45;15.00;;;;;;;;;;2100397;28;20093;-65
2024/03/21 01:37:09;;;;;;;24.38;14.57;;;;;;;;;;2102317;28;20393;-65
2024/03/21 01:38:28;;;;;;;24.13;14.38;;;;;;;;;;2100401;28;20025;-65
2024/03/21 01:39:47;;;;;;;25.00;14.07;;;;;;;;;;2100656;28;20028;-65
2024/03/21 01:41:06;;;;;;;27.15;14.95;;;;;;;;;;2101090;28;20024;-65
2024/03/21 01:42:25;;;;;;;27.83;15.00;;;;;;;;;;2101789;28;20445;-66
2024/03/21 01:43:44;;;;;;;23.83;14.68;;;;;;;;;;2102583;28;20397;-65
2024/03/21 01:45:06;;;;;;;21.33;13.50;;;;;;;;;;2101264;28;20477;-66
2024/03/21 01:46:25;;;;;;;21.27;14.53;;;;;;;;;;2100982;28;20025;-66
2024/03/21 01:47:44;;;;;;;25.50;14.13;;;;;;;;;;2100736;28;20238;-66
2024/03/21 01:49:03;;;;;;;26.63;14.90;;;;;;;;;;2101054;28;20025;-66
2024/03/21 01:50:22;;;;;;;23.40;14.38;;;;;;;;;;2100863;28;20024;-65
2024/03/21 01:51:42;;;;;;;26.50;14.85;;;;;;;;;;2101999;28;20036;-66
2024/03/21 01:53:01;;;;;;;22.35;14.13;;;;;;;;;;2101571;28;20028;-65
2024/03/21 01:54:20;;;;;;;27.08;14.70;;;;;;;;;;2100286;28;20064;-66
2024/03/21 01:55:39;;;;;;;25.25;15.20;;;;;;;;;;2100843;28;20064;-66
2024/03/21 01:56:58;;;;;;;29.20;15.27;;;;;;;;;;2101034;28;20021;-65
2024/03/21 01:58:18;;;;;;;25.17;15.27;;;;;;;;;;2092658;28;20033;-65
2024/03/21 01:59:37;;;;;;;25.27;15.07;;;;;;;;;;2097547;28;20099;-65
2024/03/21 02:00:57;;;;;;;27.60;14.98;;;;;;;;;;2100730;28;20107;-65
2024/03/21 02:02:16;;;;;;;27.25;14.20;;;;;;;;;;2095185;28;20029;-65
2024/03/21 02:03:35;;;;;;;23.25;13.40;;;;;;;;;;2090911;28;20148;-65
2024/03/21 02:04:57;;;;;;;26.48;15.57;;;;;;;;;;2088688;28;20033;-66
2024/03/21 02:06:16;;;;;;;26.75;15.68;;;;;;;;;;2097635;28;20486;-65
2024/03/21 02:07:35;;;;;;;25.38;14.98;;;;;;;;;;2101715;28;20032;-65
2024/03/21 02:08:54;;;;;;;23.33;15.07;;;;;;;;;;2101428;28;20028;-65
2024/03/21 02:10:15;;;;;;;23.42;14.85;;;;;;;;;;2091951;28;20024;-65
2024/03/21 02:11:34;;;;;;;25.30;14.25;;;;;;;;;;2099142;28;20024;-66
2024/03/21 02:12:53;;;;;;;25.95;14.65;;;;;;;;;;2102073;28;20482;-65
2024/03/21 02:14:14;;;;;;;22.10;14.27;;;;;;;;;;2100616;28;20059;-65
2024/03/21 02:15:33;;;;;;;29.40;14.80;;;;;;;;;;2101293;28;20021;-65
2024/03/21 02:16:52;;;;;;;27.70;15.20;;;;;;;;;;2101655;28;20106;-65
2024/03/21 02:18:15;;;;;;;25.42;14.15;;;;;;;;;;2101606;28;20036;-65
2024/03/21 02:19:34;;;;;;;24.42;14.45;;;;;;;;;;2100942;28;20021;-65
2024/03/21 02:20:52;;;;;;;27.00;14.98;;;;;;;;;;2102488;28;20063;-65
2024/03/21 02:23:49;;;;;;;23.60;13.95;;;;;;;;;;2102192;28;20021;-65
2024/03/21 02:25:10;;;;;;;24.00;14.52;;;;;;;;;;2091773;28;20029;-65
2024/03/21 02:26:29;;;;;;;25.27;13.75;;;;;;;;;;2096655;28;20077;-65
2024/03/21 02:27:48;;;;;;;26.17;15.05;;;;;;;;;;2100616;28;20032;-65
2024/03/21 02:29:07;;;;;;;30.02;15.15;;;;;;;;;;2101524;28;20064;-65
2024/03/21 02:30:26;;;;;;;26.70;15.13;;;;;;;;;;2100691;28;20033;-65
2024/03/21 02:31:45;;;;;;;25.65;15.10;;;;;;;;;;2101107;28;20021;-65
2024/03/21 02:33:04;;;;;;;22.60;14.05;;;;;;;;;;2102077;28;20021;-65
2024/03/21 02:34:24;;;;;;;28.73;15.93;;;;;;;;;;2102986;28;20066;-65
2024/03/21 02:35:43;;;;;;;26.02;15.45;;;;;;;;;;2103030;28;20036;-65
2024/03/21 02:37:02;;;;;;;23.08;13.73;;;;;;;;;;2093409;28;20111;-65
2024/03/21 02:38:20;;;;;;;27.45;15.75;;;;;;;;;;2098848;28;20135;-65
2024/03/21 02:39:39;;;;;;;23.98;14.80;;;;;;;;;;2103019;28;20108;-65
2024/03/21 02:40:58;;;;;;;23.63;14.40;;;;;;;;;;2102623;28;20452;-65
2024/03/21 02:42:18;;;;;;;30.58;16.25;;;;;;;;;;2102059;28;20406;-65
2024/03/21 02:43:37;;;;;;;28.30;16.35;;;;;;;;;;2103523;28;20024;-65
2024/03/21 02:44:56;;;;;;;29.55;16.58;;;;;;;;;;2102602;28;20028;-65
2024/03/21 02:46:15;;;;;;;27.45;16.13;;;;;;;;;;2102532;28;20477;-65
2024/03/21 02:47:34;;;;;;;26.70;15.30;;;;;;;;;;2103058;28;20035;-65
2024/03/21 02:48:53;;;;;;;24.90;15.77;;;;;;;;;;2102295;28;20020;-65
2024/03/21 02:50:12;;;;;;;27.08;15.30;;;;;;;;;;2102694;28;20035;-65
2024/03/21 02:51:31;;;;;;;30.60;16.27;;;;;;;;;;2094909;28;20028;-65
2024/03/21 02:52:50;;;;;;;29.85;16.35;;;;;;;;;;2099244;28;20048;-65
2024/03/21 02:54:09;;;;;;;29.80;16.02;;;;;;;;;;2102639;28;20021;-65
2024/03/21 02:55:28;;;;;;;30.80;16.65;;;;;;;;;;2101850;28;20028;-65
2024/03/21 02:56:47;;;;;;;27.52;15.60;;;;;;;;;;2102940;28;20044;-65
2024/03/21 02:58:06;;;;;;;23.33;14.65;;;;;;;;;;2103268;28;20027;-65
2024/03/21 02:59:25;;;;;;;26.65;16.08;;;;;;;;;;2102591;28;20032;-65
2024/03/21 03:00:44;;;;;;;31.95;16.55;;;;;;;;;;2092619;28;20040;-65
2024/03/21 03:02:03;;;;;;;27.77;15.68;;;;;;;;;;2099678;28;20024;-65
2024/03/21 03:03:22;;;;;;;26.17;15.13;;;;;;;;;;2103079;28;20491;-65
2024/03/21 03:04:41;;;;;;;26.83;15.93;;;;;;;;;;2102472;28;20429;-65
2024/03/21 03:06:00;;;;;;;26.45;15.00;;;;;;;;;;2102736;28;20397;-65
2024/03/21 03:07:20;;;;;;;27.95;15.52;;;;;;;;;;2102219;28;20123;-65
2024/03/21 03:08:38;;;;;;;28.20;16.23;;;;;;;;;;2102857;28;20401;-65
2024/03/21 03:09:58;;;;;;;28.52;16.83;;;;;;;;;;2102763;28;20482;-65
2024/03/21 03:11:17;;;;;;;26.75;15.50;;;;;;;;;;2102397;28;20071;-66
2024/03/21 03:12:36;;;;;;;31.42;16.85;;;;;;;;;;2093743;28;20037;-65
2024/03/21 03:13:56;;;;;;;24.75;15.15;;;;;;;;;;2098398;28;20479;-65
2024/03/21 03:15:15;;;;;;;26.83;15.43;;;;;;;;;;2101577;28;20107;-65
2024/03/21 03:16:34;;;;;;;26.75;16.00;;;;;;;;;;2102572;28;20028;-65
2024/03/21 03:17:53;;;;;;;31.70;16.30;;;;;;;;;;2092979;28;20020;-65
2024/03/21 03:19:12;;;;;;;29.35;15.88;;;;;;;;;;2099320;28;20037;-65
2024/03/21 03:20:31;;;;;;;27.30;15.85;;;;;;;;;;2103094;28;20032;-65
2024/03/21 03:21:50;;;;;;;25.95;15.60;;;;;;;;;;2102399;28;20031;-68
2024/03/21 03:23:09;;;;;;;29.80;15.57;;;;;;;;;;2102543;28;20107;-65
2024/03/21 03:24:28;;;;;;;27.25;15.40;;;;;;;;;;2102533;28;20024;-65
2024/03/21 03:25:47;;;;;;;27.33;16.73;;;;;;;;;;2102957;28;20028;-65
2024/03/21 03:27:06;;;;;;;26.38;15.48;;;;;;;;;;2100501;28;20536;-65
2024/03/21 03:28:25;;;;;;;26.50;15.38;;;;;;;;;;2102444;28;20044;-65
2024/03/21 03:29:44;;;;;;;28.77;16.60;;;;;;;;;;2102634;28;20024;-65
2024/03/21 03:31:03;;;;;;;30.33;15.98;;;;;;;;;;2102007;28;20044;-65
2024/03/21 03:32:22;;;;;;;27.27;14.98;;;;;;;;;;2102735;28;20028;-65
2024/03/21 03:35:40;;;;;;;31.02;16.15;;;;;;;;;;2102185;28;20482;-65
2024/03/21 03:36:59;;;;;;;29.77;15.98;;;;;;;;;;2093169;28;20037;-65
2024/03/21 03:38:18;;;;;;;25.58;14.70;;;;;;;;;;2098135;28;20135;-66
2024/03/21 03:39:37;;;;;;;32.13;15.93;;;;;;;;;;2101044;28;20025;-65
2024/03/21 03:40:56;;;;;;;30.58;14.68;;;;;;;;;;2102813;28;20482;-65
2024/03/21 03:42:15;;;;;;;25.30;14.52;;;;;;;;;;2102314;28;20028;-65
2024/03/21 03:43:34;;;;;;;30.13;15.95;;;;;;;;;;2092299;28;20029;-65
2024/03/21 03:44:53;;;;;;;27.20;15.60;;;;;;;;;;2098981;28;20036;-65
2024/03/21 03:46:12;;;;;;;26.48;15.88;;;;;;;;;;2101908;28;20033;-65
2024/03/21 03:47:31;;;;;;;30.02;16.55;;;;;;;;;;2101781;28;20111;-65
2024/03/21 03:48:50;;;;;;;31.30;15.95;;;;;;;;;;2101833;28;20020;-65
2024/03/21 03:50:10;;;;;;;25.50;16.05;;;;;;;;;;2093762;28;20056;-65
2024/03/21 03:51:28;;;;;;;27.83;16.00;;;;;;;;;;2098111;28;20020;-65
2024/03/21 03:52:47;;;;;;;29.10;16.75;;;;;;;;;;2102232;28;20529;-65
2024/03/21 03:54:06;;;;;;;29.95;16.50;;;;;;;;;;2101698;28;20024;-65
2024/03/21 03:55:25;;;;;;;30.88;16.85;;;;;;;;;;2102161;28;20060;-66
2024/03/21 03:56:44;;;;;;;33.05;17.38;;;;;;;;;;2102546;28;20024;-65
2024/03/21 03:58:03;;;;;;;32.85;16.70;;;;;;;;;;2102626;28;20378;-65
2024/03/21 03:59:22;;;;;;;30.30;16.25;;;;;;;;;;2101040;28;20064;-65
2024/03/21 04:00:40;;;;;;;30.35;15.85;;;;;;;;;;2101626;28;20517;-65
2024/03/21 04:01:59;;;;;;;31.15;17.23;;;;;;;;;;2101779;28;20035;-65
2024/03/21 04:03:18;;;;;;;29.02;15.93;;;;;;;;;;2101092;28;20025;-65
2024/03/21 04:04:37;;;;;;;28.60;15.40;;;;;;;;;;2101922;28;20462;-65
2024/03/21 04:06:01;;;;;;;29.40;15.30;;;;;;;;;;2101994;28;20040;-65
2024/03/21 04:07:21;;;;;;;;;;;;;;;;;;2094027;28;20037;-65
2024/03/21 04:08:40;;;;;;;29.02;14.45;;;;;;;;;;2097833;28;19904;-65
2024/03/21 04:09:59;;;;;;;29.65;15.38;;;;;;;;;;2101096;28;20032;-65
2024/03/21 04:11:18;;;;;;;30.05;15.75;;;;;;;;;;2101623;28;20111;-65
2024/03/21 04:12:38;;;;;;;30.50;15.80;;;;;;;;;;2100764;28;20416;-65
2024/03/21 04:13:57;;;;;;;28.65;15.38;;;;;;;;;;2101627;28;20021;-65
2024/03/21 04:15:16;;;;;;;27.10;14.85;;;;;;;;;;2091749;28;20486;-65
2024/03/21 04:16:34;;;;;;;28.08;15.45;;;;;;;;;;2097944;28;20205;-65
2024/03/21 04:17:53;;;;;;;29.58;16.15;;;;;;;;;;2101813;28;20017;-65
2024/03/21 04:19:12;;;;;;;31.08;17.02;;;;;;;;;;2101786;28;20024;-65
2024/03/21 04:20:32;;;;;;;30.80;16.25;;;;;;;;;;2102113;28;20036;-65
2024/03/21 04:21:51;;;;;;;31.25;16.17;;;;;;;;;;2102047;28;20064;-65
2024/03/21 04:23:09;;;;;;;29.88;15.88;;;;;;;;;;2102093;28;20051;-65
2024/03/21 04:24:28;;;;;;;29.73;15.68;;;;;;;;;;2102313;28;20020;-65
2024/03/21 04:25:48;;;;;;;28.17;16.05;;;;;;;;;;2101819;28;20032;-65
2024/03/21 04:27:07;;;;;;;31.50;16.35;;;;;;;;;;2100949;28;20028;-65
2024/03/21 04:28:26;;;;;;;32.42;15.98;;;;;;;;;;2102109;28;20036;-65
2024/03/21 04:29:45;;;;;;;29.92;15.75;;;;;;;;;;2100977;28;20036;-65
2024/03/21 04:31:04;;;;;;;31.23;16.35;;;;;;;;;;2100650;28;20044;-67
2024/03/21 04:32:23;;;;;;;29.05;16.15;;;;;;;;;;2101816;28;20413;-65
2024/03/21 04:33:42;;;;;;;30.48;16.60;;;;;;;;;;2101639;28;20032;-65
2024/03/21 04:35:01;;;;;;;33.13;16.33;;;;;;;;;;2101996;28;20032;-65
2024/03/21 04:36:20;;;;;;;33.70;16.40;;;;;;;;;;2102222;28;20139;-65
2024/03/21 04:37:39;;;;;;;31.10;16.92;;;;;;;;;;2100647;28;20047;-65
2024/03/21 04:38:58;;;;;;;31.27;16.60;;;;;;;;;;2101161;28;20056;-65
2024/03/21 04:40:17;;;;;;;33.10;16.10;;;;;;;;;;2102666;28;20033;-65
2024/03/21 04:41:36;;;;;;;29.35;15.98;;;;;;;;;;2092977;28;20029;-65
2024/03/21 04:42:57;;;;;;;30.90;16.08;;;;;;;;;;2097758;28;20436;-65
2024/03/21 04:44:16;;;;;;;33.45;15.65;;;;;;;;;;2100510;28;20489;-65
2024/03/21 04:45:36;;;;;;;31.38;15.93;;;;;;;;;;2101352;28;20481;-65
2024/03/21 04:46:54;;;;;;;28.65;15.07;;;;;;;;;;2101187;28;20058;-65
2024/03/21 04:48:13;;;;;;;34.83;16.48;;;;;;;;;;2093188;28;20510;-65
2024/03/21 04:49:32;;;;;;;26.83;16.10;;;;;;;;;;2098129;28;20036;-65
2024/03/21 04:50:51;;;;;;;33.25;15.38;;;;;;;;;;2091910;28;20033;-65
2024/03/21 04:52:10;;;;;;;30.05;16.38;;;;;;;;;;2097881;28;20028;-65
2024/03/21 04:53:30;;;;;;;31.05;16.73;;;;;;;;;;2101513;28;20402;-65
2024/03/21 04:54:49;;;;;;;27.95;15.68;;;;;;;;;;2099816;28;20032;-64
2024/03/21 04:56:08;;;;;;;33.13;17.10;;;;;;;;;;2101038;28;20032;-66
2024/03/21 04:57:27;;;;;;;30.23;15.32;;;;;;;;;;2100911;28;20024;-66
2024/03/21 04:58:48;;;;;;;29.30;15.73;;;;;;;;;;2101203;28;20020;-66
2024/03/21 05:00:10;;;;;;;26.08;14.80;;;;;;;;;;2101690;28;20482;-66
2024/03/21 05:01:30;;;;;;;26.80;14.60;;;;;;;;;;2101576;28;20024;-66
2024/03/21 05:02:49;;;;;;;25.30;14.88;;;;;;;;;;2101559;28;20024;-66
2024/03/21 05:04:08;;;;;;;25.42;14.80;;;;;;;;;;2101014;28;20469;-66
2024/03/21 05:05:27;;;;;;;27.33;14.70;;;;;;;;;;2092791;28;20041;-66
2024/03/21 05:06:46;;;;;;;27.23;14.35;;;;;;;;;;2098060;28;20501;-66
2024/03/21 05:08:05;;;;;;;24.08;13.98;;;;;;;;;;2101561;28;20032;-66
2024/03/21 05:09:25;;;;;;;26.27;13.95;;;;;;;;;;2101889;28;20036;-66
2024/03/21 05:10:44;;;;;;;23.83;14.38;;;;;;;;;;2101488;28;20027;-66
2024/03/21 05:12:03;;;;;;;27.60;14.05;;;;;;;;;;2100334;28;20024;-66
2024/03/21 05:13:22;;;;;;;22.00;13.73;;;;;;;;;;2100530;28;20029;-66
2024/03/21 05:14:41;;;;;;;27.73;15.13;;;;;;;;;;2100234;28;20029;-66
2024/03/21 05:16:00;;;;;;;25.00;13.98;;;;;;;;;;2100562;28;20033;-66
2024/03/21 05:17:20;;;;;;;25.88;14.93;;;;;;;;;;2099711;28;20032;-67
2024/03/21 05:18:39;;;;;;;23.27;14.05;;;;;;;;;;2100118;28;20103;-66
2024/03/21 05:19:58;;;;;;;27.38;13.68;;;;;;;;;;2091991;28;20036;-66
2024/03/21 05:21:17;;;;;;;25.08;14.57;;;;;;;;;;2097262;28;20028;-66
2024/03/21 05:22:36;;;;;;;24.60;15.18;;;;;;;;;;2102118;28;20020;-66
2024/03/21 05:23:55;;;;;;;24.52;14.57;;;;;;;;;;2102195;28;20442;-66
2024/03/21 05:25:14;;;;;;;24.40;13.88;;;;;;;;;;2100698;28;20032;-66
2024/03/21 05:26:33;;;;;;;25.55;14.63;;;;;;;;;;2101924;28;20064;-66
2024/03/21 05:27:52;;;;;;;23.67;14.40;;;;;;;;;;2101591;28;20064;-66
2024/03/21 05:29:11;;;;;;;26.38;15.50;;;;;;;;;;2101211;28;20397;-66
2024/03/21 05:30:30;;;;;;;23.80;14.23;;;;;;;;;;2100854;28;20045;-66
2024/03/21 05:31:49;;;;;;;26.10;15.15;;;;;;;;;;2091561;28;20033;-65
2024/03/21 05:33:09;;;;;;;23.23;14.05;;;;;;;;;;2093440;28;20029;-66
2024/03/21 05:34:29;;;;;;;27.95;15.10;;;;;;;;;;2097973;28;20021;-67
2024/03/21 05:35:48;;;;;;;23.20;14.02;;;;;;;;;;2101401;28;20024;-65
2024/03/21 05:37:07;;;;;;;23.35;14.43;;;;;;;;;;2101766;28;20424;-67
2024/03/21 05:38:26;;;;;;;23.13;13.68;;;;;;;;;;2100127;28;20028;-66
2024/03/21 05:39:46;;;;;;;23.15;14.32;;;;;;;;;;2101118;28;20064;-66
2024/03/21 05:41:06;;;;;;;26.75;14.63;;;;;;;;;;2101399;28;20387;-66
2024/03/21 05:42:25;;;;;;;24.05;14.38;;;;;;;;;;2101506;28;20036;-65
2024/03/21 05:43:44;;;;;;;24.33;14.65;;;;;;;;;;2101533;28;20020;-66
2024/03/21 05:45:03;;;;;;;21.98;13.85;;;;;;;;;;2100279;28;20054;-66
2024/03/21 05:46:26;;;;;;;24.25;13.48;;;;;;;;;;2101869;28;20028;-66
2024/03/21 05:47:45;;;;;;;30.27;15.65;;;;;;;;;;2101433;28;20425;-66
2024/03/21 05:49:04;;;;;;;27.40;14.32;;;;;;;;;;2100569;28;20394;-66
2024/03/21 05:50:23;;;;;;;26.75;14.13;;;;;;;;;;2101028;28;20041;-66
2024/03/21 05:51:42;;;;;;;26.02;15.02;;;;;;;;;;2092561;28;20506;-66
2024/03/21 05:53:01;;;;;;;23.75;14.10;;;;;;;;;;2098036;28;20107;-66
2024/03/21 05:54:20;;;;;;;23.63;13.90;;;;;;;;;;2100407;28;20032;-66
2024/03/21 05:55:39;;;;;;;26.38;14.90;;;;;;;;;;2101337;28;20385;-66
2024/03/21 05:56:58;;;;;;;24.88;14.35;;;;;;;;;;2100522;28;20029;-66
2024/03/21 05:58:17;;;;;;;26.20;15.43;;;;;;;;;;2101595;28;20029;-66
2024/03/21 05:59:36;;;;;;;23.33;15.05;;;;;;;;;;2101398;28;20029;-66
2024/03/21 06:00:55;;;;;;;25.33;15.00;;;;;;;;;;2101503;28;20440;-65
2024/03/21 06:02:14;;;;;;;30.08;16.35;;;;;;;;;;2100434;28;20059;-66
2024/03/21 06:03:33;;;;;;;26.13;14.73;;;;;;;;;;2101304;28;20419;-66
2024/03/21 06:04:52;;;;;;;30.13;15.45;;;;;;;;;;2101291;28;20035;-66
2024/03/21 06:06:11;;;;;;;25.83;15.23;;;;;;;;;;2101505;28;20404;-66
2024/03/21 06:07:30;;;;;;;27.83;14.30;;;;;;;;;;2103198;28;20043;-66
2024/03/21 06:08:49;;;;;;;25.83;15.23;;;;;;;;;;2103113;28;20020;-67
2024/03/21 06:10:08;;;;;;;25.63;14.93;;;;;;;;;;2102803;28;20040;-66
2024/03/21 06:11:27;;;;;;;28.17;15.93;;;;;;;;;;2092674;28;20029;-66
2024/03/21 06:12:47;;;;;;;28.13;15.48;;;;;;;;;;2099134;28;20035;-66
2024/03/21 06:14:06;;;;;;;26.80;15.57;;;;;;;;;;2102734;28;20420;-66
2024/03/21 06:15:25;;;;;;;26.42;14.80;;;;;;;;;;2103493;28;20032;-66
2024/03/21 06:16:44;;;;;;;28.77;15.80;;;;;;;;;;2102234;28;20103;-66
2024/03/21 06:18:03;;;;;;;27.42;15.43;;;;;;;;;;2102908;28;20065;-66
2024/03/21 06:19:22;;;;;;;31.38;16.05;;;;;;;;;;2102753;28;20509;-66
2024/03/21 06:20:41;;;;;;;28.52;14.93;;;;;;;;;;2101823;28;20060;-66
2024/03/21 06:22:00;;;;;;;30.50;15.65;;;;;;;;;;2103022;28;20020;-66
2024/03/21 06:23:19;;;;;;;29.70;15.88;;;;;;;;;;2102618;28;20032;-66
2024/03/21 06:24:38;;;;;;;29.95;16.13;;;;;;;;;;2102845;28;20432;-66
2024/03/21 06:25:57;;;;;;;27.63;15.98;;;;;;;;;;2103654;28;20426;-66
2024/03/21 06:27:16;;;;;;;29.42;15.60;;;;;;;;;;2102813;28;20477;-66
2024/03/21 06:28:35;;;;;;;26.85;15.60;;;;;;;;;;2103042;28;20032;-66
2024/03/21 06:29:54;;;;;;;29.67;16.20;;;;;;;;;;2094108;28;20420;-66
2024/03/21 06:31:13;;;;;;;25.65;15.00;;;;;;;;;;2099488;28;20419;-66
2024/03/21 06:32:32;;;;;;;23.17;14.40;;;;;;;;;;2103630;28;20060;-65
2024/03/21 06:33:51;;;;;;;30.02;15.82;;;;;;;;;;2103030;28;20028;-65
2024/03/21 06:35:13;;;;;;;27.75;14.63;;;;;;;;;;2093697;28;20025;-65
2024/03/21 06:36:32;;;;;;;26.20;14.48;;;;;;;;;;2098526;28;20032;-65
2024/03/21 06:37:52;;;;;;;23.40;14.23;;;;;;;;;;2102662;28;20036;-65
2024/03/21 06:39:13;;;;;;;25.73;14.27;;;;;;;;;;2103063;28;20915;-65
2024/03/21 06:40:33;;;;;;;29.15;15.18;;;;;;;;;;2102641;28;20111;-65
2024/03/21 06:41:52;;;;;;;25.10;14.85;;;;;;;;;;2094747;28;20045;-65
2024/03/21 06:43:10;;;;;;;24.13;13.80;;;;;;;;;;2099834;28;20416;-65
2024/03/21 06:44:29;;;;;;;25.38;14.60;;;;;;;;;;2102783;28;20115;-65
2024/03/21 06:45:55;;;;;;;24.13;14.27;;;;;;;;;;2102217;28;20025;-66
2024/03/21 06:47:14;;;;;;;22.00;12.85;;;;;;;;;;2102123;28;20033;-65
2024/03/21 06:48:33;;;;;;;21.25;12.27;;;;;;;;;;2102832;28;20033;-66
2024/03/21 06:49:56;;;;;;;22.77;13.63;;;;;;;;;;2102643;28;20126;-66
2024/03/21 06:51:15;;;;;;;22.50;12.45;;;;;;;;;;2103150;28;20032;-65
2024/03/21 06:52:35;;;;;;;20.35;12.07;;;;;;;;;;2102657;28;20025;-65
2024/03/21 06:53:54;;;;;;;23.23;13.18;;;;;;;;;;2101401;28;20466;-65
2024/03/21 06:55:14;;;;;;;22.23;13.13;;;;;;;;;;2102844;28;20111;-65
2024/03/21 06:56:33;;;;;;;23.70;13.15;;;;;;;;;;2102674;28;20105;-65
2024/03/21 06:57:56;;;;;;;20.85;12.73;;;;;;;;;;2103047;28;20099;-65
2024/03/21 06:59:15;;;;;;;20.42;13.10;;;;;;;;;;2101360;28;20025;-65
2024/03/21 07:00:34;;;;;;;21.52;12.70;;;;;;;;;;2102767;28;20040;-65
2024/03/21 07:01:54;;;;;;;22.15;13.00;;;;;;;;;;2102991;28;20115;-65
2024/03/21 07:03:14;;;;;;;23.70;13.07;;;;;;;;;;2092712;28;20025;-65
2024/03/21 07:04:34;;;;;;;22.25;13.50;;;;;;;;;;2090524;28;20029;-65
2024/03/21 07:05:53;;;;;;;23.48;13.35;;;;;;;;;;2099423;28;20509;-65
2024/03/21 07:07:13;;;;;;;20.90;12.32;;;;;;;;;;2102660;28;20040;-65
2024/03/21 07:08:32;;;;;;;20.10;13.00;;;;;;;;;;2102189;28;20647;-65
2024/03/21 07:09:51;;;;;;;17.67;11.63;;;;;;;;;;2101571;28;20033;-65
2024/03/21 07:11:10;;;;;;;19.70;12.10;;;;;;;;;;2101942;28;20032;-65
2024/03/21 07:12:30;;;;;;;16.70;11.27;;;;;;;;;;2093831;28;20025;-65
2024/03/21 07:13:50;;;;;;;21.02;12.82;;;;;;;;;;2099129;28;20032;-65
2024/03/21 07:15:10;;;;;;;19.80;12.38;;;;;;;;;;2102661;28;20033;-66
2024/03/21 07:16:28;;;;;;;19.90;12.50;;;;;;;;;;2102732;28;20025;-66
2024/03/21 07:17:48;;;;;;;22.17;13.25;;;;;;;;;;2102105;28;20029;-65
2024/03/21 07:19:07;;;;;;;22.55;13.02;;;;;;;;;;2093460;28;20029;-66
2024/03/21 07:20:26;;;;;;;22.48;13.02;;;;;;;;;;2099580;28;20656;-65
2024/03/21 07:21:46;;;;;;;17.77;11.40;;;;;;;;;;2102365;28;20041;-65
2024/03/21 07:23:05;;;;;;;19.27;12.77;;;;;;;;;;2102350;28;20024;-66
2024/03/21 07:24:24;;;;;;;21.02;11.60;;;;;;;;;;2093382;28;20115;-65
2024/03/21 07:25:43;;;;;;;18.52;12.27;;;;;;;;;;2098612;28;20552;-65
2024/03/21 07:27:02;;;;;;;23.58;13.15;;;;;;;;;;2102166;28;20032;-65
2024/03/21 07:28:21;;;;;;;21.90;12.45;;;;;;;;;;2102526;28;20572;-65
2024/03/21 07:29:41;;;;;;;20.95;11.75;;;;;;;;;;2102602;28;20032;-66
2024/03/21 07:31:00;;;;;;;19.80;11.88;;;;;;;;;;2102289;28;20033;-67
2024/03/21 07:32:19;;;;;;;17.80;11.98;;;;;;;;;;2102445;28;20490;-66
2024/03/21 07:33:38;;;;;;;19.48;12.60;;;;;;;;;;2093521;28;20417;-66
2024/03/21 07:34:56;;;;;;;19.17;12.55;;;;;;;;;;2098938;28;20024;-66
2024/03/21 07:36:15;;;;;;;16.80;11.25;;;;;;;;;;2102458;28;20017;-65
2024/03/21 07:37:34;;;;;;;18.45;12.00;;;;;;;;;;2102717;28;20032;-65
2024/03/21 07:38:53;;;;;;;18.48;12.25;;;;;;;;;;2093478;28;20033;-65
2024/03/21 07:40:12;;;;;;;15.90;11.00;;;;;;;;;;2089740;28;20029;-65
2024/03/21 07:41:31;;;;;;;19.90;11.75;;;;;;;;;;2099281;28;20107;-65
2024/03/21 07:42:50;;;;;;;19.05;11.75;;;;;;;;;;2102361;28;20032;-65
2024/03/21 07:44:09;;;;;;;16.85;11.23;;;;;;;;;;2102189;28;20048;-65
2024/03/21 07:45:28;;;;;;;15.85;10.98;;;;;;;;;;2102441;28;20385;-65